createdAt,value
2019-04-23T00:01:08.905Z,2.60
2019-04-23T00:03:30.570Z,2.47
2019-04-23T00:06:08.532Z,2.20
2019-04-23T00:08:36.543Z,2.70
2019-04-23T00:11:09.929Z,2.80
2019-04-23T00:13:37.119Z,3.00
2019-04-23T00:18:42.265Z,2.50
2019-04-23T00:21:20.692Z,2.57
2019-04-23T00:24:03.079Z,2.63
2019-04-23T00:26:30.657Z,2.40
2019-04-23T00:28:58.873Z,2.63
2019-04-23T00:31:35.067Z,2.73
2019-04-23T00:34:01.118Z,2.87
2019-04-23T00:36:47.610Z,3.07
2019-04-23T00:39:17.348Z,2.87
2019-04-23T00:41:36.252Z,2.87
2019-04-23T00:44:09.226Z,2.90
2019-04-23T00:51:48.253Z,3.10
2019-04-23T00:54:24.086Z,3.10
2019-04-23T00:59:23.213Z,2.93
2019-04-23T01:01:56.908Z,3.47
2019-04-23T01:04:27.411Z,2.97
2019-04-23T01:07:02.550Z,3.27
2019-04-23T01:09:39.025Z,2.63
2019-04-23T01:12:06.094Z,2.90
2019-04-23T01:14:33.913Z,3.10
2019-04-23T01:17:11.379Z,3.10
2019-04-23T01:19:58.022Z,2.87
2019-04-23T01:22:06.466Z,2.83
2019-04-23T01:25:08.763Z,2.90
2019-04-23T01:30:34.373Z,3.07
2019-04-23T01:33:03.873Z,3.20
2019-04-23T01:35:36.030Z,3.40
2019-04-23T01:38:06.141Z,3.17
2019-04-23T01:43:08.004Z,3.53
2019-04-23T01:45:34.307Z,3.20
2019-04-23T01:48:12.871Z,3.57
2019-04-23T01:50:57.596Z,3.10
2019-04-23T01:53:19.490Z,3.50
2019-04-23T01:55:54.470Z,3.40
2019-04-23T01:58:40.277Z,3.60
2019-04-23T02:01:00.726Z,3.60
2019-04-23T02:03:34.500Z,3.70
2019-04-23T02:08:32.333Z,3.37
2019-04-23T02:11:19.969Z,3.60
2019-04-23T02:13:38.358Z,3.50
2019-04-23T02:16:25.887Z,3.77
2019-04-23T02:18:43.927Z,3.47
2019-04-23T02:21:13.660Z,3.70
2019-04-23T02:23:47.958Z,3.67
2019-04-23T02:26:26.358Z,3.87
2019-04-23T02:29:06.710Z,3.70
2019-04-23T02:34:14.339Z,4.00
2019-04-23T02:36:39.972Z,3.73
2019-04-23T02:39:13.034Z,3.93
2019-04-23T02:46:56.799Z,4.17
2019-04-23T02:51:51.006Z,4.00
2019-04-23T02:56:51.518Z,4.27
2019-04-23T02:59:32.694Z,4.43
2019-04-23T03:02:12.021Z,4.23
2019-04-23T03:07:01.353Z,4.60
2019-04-23T03:09:43.213Z,4.40
2019-04-23T03:12:05.874Z,4.40
2019-04-23T03:14:34.328Z,4.10
2019-04-23T03:17:03.428Z,4.37
2019-04-23T03:20:15.821Z,4.83
2019-04-23T03:22:58.958Z,4.40
2019-04-23T03:25:36.223Z,4.60
2019-04-23T03:28:23.055Z,4.50
2019-04-23T03:38:43.420Z,4.50
2019-04-23T03:41:15.727Z,4.70
2019-04-23T03:43:38.968Z,4.23
2019-04-23T03:46:16.354Z,4.47
2019-04-23T03:48:54.869Z,5.03
2019-04-23T03:51:16.680Z,4.77
2019-04-23T03:53:52.281Z,5.40
2019-04-23T03:56:22.393Z,5.23
2019-04-23T03:58:47.400Z,4.73
2019-04-23T04:09:14.916Z,5.40
2019-04-23T04:11:25.480Z,5.00
2019-04-23T04:16:51.775Z,5.67
2019-04-23T04:22:04.753Z,5.03
2019-04-23T04:29:40.358Z,5.27
2019-04-23T04:32:00.350Z,4.60
2019-04-23T04:39:44.431Z,5.40
2019-04-23T04:42:28.545Z,5.03
2019-04-23T04:47:19.808Z,5.10
2019-04-23T04:54:44.417Z,5.00
2019-04-23T05:00:06.758Z,5.07
2019-04-23T05:05:46.321Z,4.70
2019-04-23T05:12:45.268Z,5.40
2019-04-23T05:18:00.024Z,5.50
2019-04-23T05:23:09.193Z,10.50
2019-04-23T05:25:17.978Z,5.70
2019-04-23T05:28:02.844Z,5.43
2019-04-23T05:33:07.953Z,5.33
2019-04-23T05:36:02.034Z,5.87
2019-04-23T05:40:44.964Z,5.80
2019-04-23T05:43:15.858Z,5.47
2019-04-23T05:45:41.363Z,6.07
2019-04-23T05:48:21.560Z,5.70
2019-04-23T05:50:59.279Z,6.03
2019-04-23T05:53:18.603Z,6.23
2019-04-23T05:55:56.828Z,6.63
2019-04-23T05:58:31.521Z,6.37
2019-04-23T06:09:20.384Z,6.70
2019-04-23T06:11:58.594Z,6.93
2019-04-23T06:14:41.061Z,6.70
2019-04-23T06:17:00.477Z,6.73
2019-04-23T06:19:45.963Z,7.30
2019-04-23T06:22:26.853Z,6.93
2019-04-23T06:24:32.995Z,6.67
2019-04-23T06:27:06.721Z,7.50
2019-04-23T06:29:50.145Z,7.20
2019-04-23T06:32:06.523Z,7.80
2019-04-23T06:34:43.550Z,8.77
2019-04-23T06:37:24.480Z,7.50
2019-04-23T06:42:14.462Z,6.93
2019-04-23T06:44:58.447Z,7.23
2019-04-23T06:47:37.403Z,7.03
2019-04-23T06:50:14.827Z,7.40
2019-04-23T06:52:43.874Z,9.27
2019-04-23T06:55:25.506Z,7.40
2019-04-23T06:57:48.084Z,8.30
2019-04-23T07:00:22.257Z,8.50
2019-04-23T07:02:54.215Z,8.50
2019-04-23T07:05:29.762Z,7.90
2019-04-23T07:07:58.343Z,8.83
2019-04-23T07:10:34.813Z,8.40
2019-04-23T07:13:08.239Z,8.33
2019-04-23T07:18:04.036Z,8.40
2019-04-23T07:20:40.291Z,9.40
2019-04-23T07:23:19.659Z,7.70
2019-04-23T07:25:49.936Z,8.10
2019-04-23T07:28:23.387Z,14.50
2019-04-23T07:30:51.577Z,7.67
2019-04-23T07:33:31.114Z,8.00
2019-04-23T07:35:51.919Z,7.60
2019-04-23T07:38:57.870Z,7.57
2019-04-23T07:41:38.054Z,7.37
2019-04-23T07:47:21.307Z,7.50
2019-04-23T07:50:08.047Z,7.10
2019-04-23T07:52:24.196Z,7.10
2019-04-23T07:55:02.377Z,7.23
2019-04-23T07:57:29.166Z,7.37
2019-04-23T08:00:00.960Z,7.63
2019-04-23T08:02:31.415Z,7.00
2019-04-23T08:05:11.249Z,7.20
2019-04-23T08:07:41.102Z,7.13
2019-04-23T08:12:43.787Z,7.17
2019-04-23T08:15:09.107Z,7.43
2019-04-23T08:17:34.690Z,6.57
2019-04-23T08:20:11.245Z,7.00
2019-04-23T08:22:47.499Z,6.87
2019-04-23T08:25:37.206Z,6.50
2019-04-23T08:28:13.646Z,6.50
2019-04-23T08:30:49.586Z,6.70
2019-04-23T08:33:15.765Z,6.67
2019-04-23T08:35:54.316Z,6.30
2019-04-23T08:38:26.119Z,6.40
2019-04-23T08:41:06.035Z,6.10
2019-04-23T08:43:42.723Z,6.20
2019-04-23T08:46:33.064Z,6.97
2019-04-23T08:49:05.982Z,6.17
2019-04-23T08:51:44.538Z,5.90
2019-04-23T08:54:08.724Z,5.60
2019-04-23T08:56:42.825Z,7.50
2019-04-23T08:59:08.234Z,5.70
2019-04-23T09:01:50.666Z,5.00
2019-04-23T09:04:09.338Z,4.73
2019-04-23T09:06:34.975Z,5.87
2019-04-23T09:09:13.184Z,5.27
2019-04-23T09:14:05.303Z,4.90
2019-04-23T09:16:54.452Z,5.10
2019-04-23T09:19:23.499Z,7.07
2019-04-23T09:22:01.980Z,4.20
2019-04-23T09:24:24.234Z,4.23
2019-04-23T09:26:59.007Z,4.73
2019-04-23T09:29:36.585Z,3.80
2019-04-23T09:38:04.129Z,4.57
2019-04-23T09:41:13.033Z,4.50
2019-04-23T09:43:31.584Z,4.17
2019-04-23T09:46:17.663Z,4.50
2019-04-23T09:48:50.964Z,4.20
2019-04-23T09:51:23.536Z,4.27
2019-04-23T09:53:58.014Z,4.00
2019-04-23T09:56:32.410Z,3.77
2019-04-23T09:59:10.935Z,3.63
2019-04-23T10:01:44.126Z,3.70
2019-04-23T10:03:53.382Z,4.07
2019-04-23T10:06:19.137Z,3.67
2019-04-23T10:08:51.389Z,3.70
2019-04-23T10:11:18.161Z,4.00
2019-04-23T10:13:48.497Z,3.73
2019-04-23T10:16:21.363Z,3.53
2019-04-23T10:18:50.996Z,3.40
2019-04-23T10:21:21.481Z,3.47
2019-04-23T10:23:52.762Z,3.67
2019-04-23T10:26:24.043Z,4.23
2019-04-23T10:29:02.125Z,20.10
2019-04-23T10:31:33.352Z,3.93
2019-04-23T10:34:04.416Z,3.80
2019-04-23T10:36:36.175Z,3.67
2019-04-23T10:39:15.512Z,4.73
2019-04-23T10:41:45.199Z,4.17
2019-04-23T10:44:29.136Z,4.40
2019-04-23T10:47:44.711Z,3.50
2019-04-23T10:50:39.986Z,3.90
2019-04-23T10:53:23.451Z,4.00
2019-04-23T10:55:46.860Z,3.80
2019-04-23T10:58:15.808Z,4.20
2019-04-23T11:00:48.917Z,4.00
2019-04-23T11:03:31.790Z,3.90
2019-04-23T11:05:59.079Z,3.43
2019-04-23T11:08:18.774Z,3.70
2019-04-23T11:10:50.337Z,4.53
2019-04-23T11:13:45.275Z,4.00
2019-04-23T11:16:44.736Z,3.70
2019-04-23T11:21:34.567Z,3.90
2019-04-23T11:23:50.185Z,3.70
2019-04-23T11:26:31.960Z,3.80
2019-04-23T11:28:51.990Z,5.57
2019-04-23T11:36:47.879Z,3.97
2019-04-23T11:39:16.752Z,3.83
2019-04-23T11:41:45.637Z,4.33
2019-04-23T11:49:26.624Z,3.40
2019-04-23T11:51:54.006Z,3.97
2019-04-23T11:54:17.514Z,3.73
2019-04-23T11:57:14.119Z,3.60
2019-04-23T11:59:31.951Z,4.17
2019-04-23T12:02:13.572Z,3.57
2019-04-23T12:08:20.628Z,3.30
2019-04-23T12:11:42.602Z,4.13
2019-04-23T12:14:24.220Z,3.93
2019-04-23T12:24:56.849Z,4.10
2019-04-23T12:27:08.151Z,3.60
2019-04-23T12:29:37.356Z,4.60
2019-04-23T12:37:45.012Z,9.00
2019-04-23T12:43:11.973Z,4.20
2019-04-23T12:48:15.623Z,4.47
2019-04-23T12:53:05.747Z,4.17
2019-04-23T12:58:03.824Z,4.27
2019-04-23T13:03:26.101Z,4.00
2019-04-23T13:05:34.461Z,3.90
2019-04-23T13:08:23.345Z,4.03
2019-04-23T13:10:39.928Z,4.20
2019-04-23T13:13:27.963Z,3.70
2019-04-23T13:18:17.590Z,4.00
2019-04-23T13:20:41.944Z,4.00
2019-04-23T13:23:22.308Z,4.00
2019-04-23T13:25:59.606Z,4.20
2019-04-23T13:28:38.763Z,4.97
2019-04-23T13:31:22.620Z,4.07
2019-04-23T13:43:47.933Z,3.73
2019-04-23T13:46:17.784Z,3.80
2019-04-23T13:48:47.039Z,4.03
2019-04-23T13:51:26.270Z,4.27
2019-04-23T13:53:51.341Z,3.70
2019-04-23T13:57:12.716Z,4.37
2019-04-23T13:59:09.616Z,3.50
2019-04-23T14:01:32.385Z,3.23
2019-04-23T14:04:24.498Z,3.43
2019-04-23T14:06:43.065Z,3.17
2019-04-23T14:09:19.946Z,3.30
2019-04-23T14:11:38.623Z,3.30
2019-04-23T14:14:34.454Z,3.70
2019-04-23T14:17:00.200Z,3.13
2019-04-23T14:19:30.183Z,3.63
2019-04-23T14:22:07.097Z,3.67
2019-04-23T14:24:45.805Z,4.30
2019-04-23T14:27:18.142Z,4.00
2019-04-23T14:32:16.004Z,3.97
2019-04-23T14:34:50.934Z,2.93
2019-04-23T14:37:14.888Z,3.47
2019-04-23T14:39:45.846Z,3.70
2019-04-23T14:45:08.075Z,3.50
2019-04-23T14:47:27.974Z,3.40
2019-04-23T14:50:29.320Z,3.00
2019-04-23T14:52:43.485Z,2.83
2019-04-23T14:55:40.311Z,3.60
2019-04-23T14:57:40.334Z,3.80
2019-04-23T15:00:15.609Z,3.40
2019-04-23T15:02:44.975Z,3.10
2019-04-23T15:07:42.206Z,3.93
2019-04-23T15:10:34.779Z,3.47
2019-04-23T15:12:54.010Z,3.80
2019-04-23T15:15:21.122Z,3.47
2019-04-23T15:20:51.787Z,3.30
2019-04-23T15:23:17.011Z,3.47
2019-04-23T15:28:06.841Z,4.17
2019-04-23T15:30:40.106Z,4.10
2019-04-23T15:33:19.837Z,3.40
2019-04-23T15:35:53.298Z,3.87
2019-04-23T15:40:45.665Z,3.97
2019-04-23T15:43:14.588Z,3.90
2019-04-23T15:45:52.523Z,4.23
2019-04-23T15:48:24.049Z,4.00
2019-04-23T15:51:10.091Z,4.23
2019-04-23T15:53:25.029Z,4.53
2019-04-23T15:56:13.731Z,4.30
2019-04-23T15:58:50.604Z,4.30
2019-04-23T16:03:28.991Z,5.57
2019-04-23T16:05:57.465Z,4.53
2019-04-23T16:11:39.501Z,5.37
2019-04-23T16:14:17.684Z,4.60
2019-04-23T16:16:46.210Z,5.63
2019-04-23T16:22:04.669Z,5.80
2019-04-23T16:24:26.410Z,5.70
2019-04-23T16:27:09.316Z,5.60
2019-04-23T16:30:32.567Z,5.10
2019-04-23T16:32:18.866Z,4.53
2019-04-23T16:34:36.586Z,4.53
2019-04-23T16:39:56.531Z,4.77
2019-04-23T16:42:24.850Z,4.00
2019-04-23T16:45:07.579Z,4.20
2019-04-23T16:47:33.213Z,3.70
2019-04-23T16:50:04.477Z,4.17
2019-04-23T16:52:26.198Z,3.83
2019-04-23T16:57:45.886Z,4.33
2019-04-23T17:00:24.481Z,3.80
2019-04-23T17:02:47.586Z,4.53
2019-04-23T17:05:18.021Z,4.00
2019-04-23T17:07:53.344Z,4.87
2019-04-23T17:10:39.684Z,4.40
2019-04-23T17:12:51.879Z,4.43
2019-04-23T17:15:27.491Z,4.17
2019-04-23T17:17:55.702Z,4.50
2019-04-23T17:20:33.865Z,4.27
2019-04-23T17:23:10.618Z,4.27
2019-04-23T17:25:26.446Z,4.40
2019-04-23T17:30:32.353Z,4.20
2019-04-23T17:33:24.057Z,4.40
2019-04-23T17:36:21.061Z,4.47
2019-04-23T17:39:01.369Z,4.43
2019-04-23T17:41:49.561Z,4.27
2019-04-23T17:44:20.392Z,4.77
2019-04-23T17:46:43.178Z,4.67
2019-04-23T17:52:03.135Z,4.50
2019-04-23T17:54:17.867Z,5.00
2019-04-23T17:57:05.509Z,4.60
2019-04-23T18:02:27.068Z,5.07
2019-04-23T18:04:34.750Z,5.50
2019-04-23T18:07:04.561Z,4.40
2019-04-23T18:09:57.038Z,5.27
2019-04-23T18:12:13.460Z,4.90
2019-04-23T18:14:39.253Z,5.47
2019-04-23T18:17:20.823Z,5.13
2019-04-23T18:20:05.305Z,5.10
2019-04-23T18:22:42.205Z,5.13
2019-04-23T18:25:25.842Z,5.37
2019-04-23T18:28:08.887Z,5.17
2019-04-23T18:31:00.641Z,5.10
2019-04-23T18:36:05.329Z,5.13
2019-04-23T18:38:46.629Z,5.10
2019-04-23T18:43:44.679Z,5.40
2019-04-23T18:48:50.495Z,5.80
2019-04-23T18:51:42.174Z,4.97
2019-04-23T18:56:44.681Z,5.67
2019-04-23T18:59:02.420Z,6.00
2019-04-23T19:01:31.071Z,5.17
2019-04-23T19:04:30.568Z,6.67
2019-04-23T19:06:51.298Z,7.17
2019-04-23T19:13:07.186Z,5.90
2019-04-23T19:23:27.306Z,6.60
2019-04-23T19:28:25.628Z,6.97
2019-04-23T19:31:07.549Z,8.00
2019-04-23T19:33:45.384Z,8.20
2019-04-23T19:36:26.006Z,9.40
2019-04-23T19:38:47.385Z,9.50
2019-04-23T19:41:19.455Z,8.33
2019-04-23T19:43:55.576Z,8.67
2019-04-23T19:46:39.748Z,8.57
2019-04-23T19:49:05.767Z,8.20
2019-04-23T19:51:38.979Z,8.50
2019-04-23T19:54:09.527Z,7.30
2019-04-23T19:56:43.176Z,6.87
2019-04-23T19:59:04.946Z,6.23
2019-04-23T20:01:39.963Z,5.87
2019-04-23T20:04:04.463Z,5.83
2019-04-23T20:07:06.174Z,5.90
2019-04-23T20:09:38.393Z,6.00
2019-04-23T20:11:54.850Z,5.80
2019-04-23T20:14:29.590Z,6.50
2019-04-23T20:17:21.371Z,5.67
2019-04-23T20:19:37.690Z,5.93
2019-04-23T20:24:52.603Z,5.70
2019-04-23T20:27:11.851Z,6.00
2019-04-23T20:35:11.321Z,5.97
2019-04-23T20:38:17.281Z,5.73
2019-04-23T20:40:25.774Z,5.67
2019-04-23T20:45:20.339Z,5.70
2019-04-23T20:50:27.646Z,5.97
2019-04-23T20:52:59.840Z,5.63
2019-04-23T21:02:29.999Z,5.97
2019-04-23T21:05:03.557Z,6.03
2019-04-23T21:07:40.611Z,6.10
2019-04-23T21:10:08.933Z,6.20
2019-04-23T21:15:10.204Z,6.03
2019-04-23T21:17:47.511Z,5.97
2019-04-23T21:22:50.401Z,5.67
2019-04-23T21:25:14.832Z,6.00
2019-04-23T21:28:04.307Z,5.93
2019-04-23T21:38:58.560Z,5.87
2019-04-23T21:41:33.305Z,6.17
2019-04-23T21:46:38.252Z,5.83
2019-04-23T21:54:14.957Z,4.50
2019-04-23T21:56:37.138Z,5.73
2019-04-23T22:01:44.939Z,6.30
2019-04-23T22:04:33.142Z,5.57
2019-04-23T22:06:47.776Z,6.17
2019-04-23T22:09:21.849Z,6.00
2019-04-23T22:14:29.085Z,5.30
2019-04-23T22:19:45.371Z,5.83
2019-04-23T22:22:07.726Z,6.40
2019-04-23T22:24:24.889Z,6.20
2019-04-23T22:26:58.182Z,6.23
2019-04-23T22:31:53.714Z,5.80
2019-04-23T22:34:40.303Z,5.33
2019-04-23T22:37:23.554Z,5.67
2019-04-23T22:39:45.811Z,6.27
2019-04-23T22:47:07.127Z,6.07
2019-04-23T22:50:02.201Z,6.10
2019-04-23T22:52:33.881Z,6.00
2019-04-23T22:58:08.068Z,6.93
2019-04-23T23:00:14.359Z,6.03
2019-04-23T23:02:59.513Z,6.17
2019-04-23T23:08:07.851Z,5.83
2019-04-23T23:10:44.198Z,6.30
2019-04-23T23:13:13.807Z,5.80
2019-04-23T23:15:49.343Z,5.80
2019-04-23T23:18:17.950Z,6.00
2019-04-23T23:20:55.338Z,6.23
2019-04-23T23:25:55.415Z,6.13
2019-04-23T23:28:31.446Z,5.90
2019-04-23T23:31:04.099Z,5.40
2019-04-23T23:33:30.224Z,5.67
2019-04-23T23:41:11.383Z,5.93
2019-04-23T23:43:54.928Z,5.67
2019-04-23T23:48:46.040Z,6.63
2019-04-23T23:51:19.050Z,6.27
2019-04-23T23:53:58.735Z,5.90
2019-04-23T23:56:15.834Z,6.00
2019-04-23T23:58:56.963Z,5.87
